Latest Weather Observations for Nullo Mountain

IDN60801

Issued at 7:13 pm EDT Tuesday 31 March 2015 (issued every 30 minutes, with the page automatically refreshed every 10 minutes)

About weather observations | Map of weather stations | Latest weather observations for NSW | Other Formats
Station Details ID: 062100 Name: NULLO MOUNTAIN AWS Lat: -32.72 Lon: 150.23 Height: 1130.0 m
Data from the previous 72 hours. | See also: Recent months at Nullo Mountain
Date/Time
EDT
Temp
°C
App
Temp
°C
Dew
Point
Rel
Hum
%
Delta-T
°C
Wind Press
QNH
hPa
Press
MSL
hPa
Rain
since 9 am
mm
Dir
 
Spd
km/h
Gust
km/h
Spd
kts
Gust
kts
31/07:00pm 13.0 10.2 12.5 97 0.3 E 19 26 10 14 - - 0.0
31/06:30pm 13.8 10.8 11.8 88 1.1 ESE 19 30 10 16 - - 0.0
31/06:00pm 14.2 11.8 11.4 83 1.6 ESE 15 20 8 11 - - 0.0
31/05:30pm 14.8 11.8 11.8 82 1.7 E 19 32 10 17 - - 0.0
31/05:00pm 15.2 11.9 11.0 76 2.4 ESE 19 28 10 15 - - 0.0
31/04:30pm 14.6 12.5 11.0 79 2.0 ESE 13 28 7 15 - - 0.0
31/04:00pm 15.6 13.6 11.4 76 2.4 ESE 13 19 7 10 - - 0.0
31/03:30pm 16.9 14.6 11.8 72 2.9 ESE 15 24 8 13 - - 0.0
31/03:00pm 15.7 12.9 11.5 76 2.4 ESE 17 26 9 14 - - 0.0
31/02:30pm 15.1 13.3 12.2 83 1.7 ESE 13 22 7 12 - - 0.0
31/02:00pm 14.0 12.1 11.7 86 1.3 E 13 24 7 13 - - 0.0
31/01:30pm 14.1 13.2 12.7 91 0.8 ESE 9 17 5 9 - - 0.0
31/01:00pm 13.2 12.0 11.6 90 0.9 E 9 17 5 9 - - 0.0
31/12:30pm 13.7 12.6 11.8 88 1.1 ESE 9 17 5 9 - - 0.0
31/12:00pm 13.6 11.7 11.7 88 1.1 ESE 13 19 7 10 - - 0.0
31/11:30am 13.6 11.3 11.8 89 1.0 ESE 15 24 8 13 - - 0.0
31/11:00am 13.0 9.6 11.4 90 0.9 E 20 30 11 16 - - 0.0
31/10:30am 13.0 9.6 11.1 88 1.1 E 20 26 11 14 - - 0.0
31/10:00am 13.1 9.6 11.0 87 1.2 E 20 32 11 17 - - 0.0
31/09:30am 12.8 9.1 10.3 85 1.4 E 20 32 11 17 - - 0.0
31/09:00am 13.7 10.0 10.1 79 2.0 E 20 33 11 18 - - 0.0
31/08:30am 13.1 9.5 10.5 84 1.4 ESE 20 24 11 13 - - 0.0
31/08:00am 11.9 8.7 10.1 89 1.0 ESE 17 22 9 12 - - 0.0
31/07:30am 11.3 8.3 10.8 97 0.3 ESE 17 20 9 11 - - 0.0
31/07:00am 11.0 8.3 10.2 95 0.4 E 15 20 8 11 - - 0.0
31/06:30am 11.4 8.5 9.8 90 0.9 E 15 20 8 11 - - 0.0
31/06:00am 11.6 9.0 9.3 86 1.2 E 13 17 7 9 - - 0.0
31/05:30am 12.1 9.5 9.3 83 1.5 E 13 17 7 9 - - 0.0
31/05:00am 12.3 9.7 9.3 82 1.6 E 13 15 7 8 - - 0.0
31/04:30am 12.2 9.6 9.4 83 1.5 E 13 17 7 9 - - 0.0
31/04:00am 12.2 9.2 9.4 83 1.5 E 15 20 8 11 - - 0.0
31/03:30am 12.3 8.9 9.3 82 1.6 E 17 20 9 11 - - 0.0
31/03:00am 12.1 9.7 10.0 87 1.1 E 13 17 7 9 - - 0.0
31/02:30am 12.0 9.0 10.7 92 0.7 E 17 20 9 11 - - 0.0
31/02:00am 11.8 9.4 11.3 97 0.3 E 15 20 8 11 - - 0.0
31/01:30am 11.9 8.8 11.7 99 0.1 E 19 28 10 15 - - 0.0
31/01:00am 12.0 8.9 11.7 98 0.2 E 19 26 10 14 - - 0.0
31/12:30am 12.3 10.0 11.8 97 0.3 E 15 22 8 12 - - 0.0
31/12:00am 12.6 10.5 12.3 98 0.2 E 15 22 8 12 - - 0.0
 
Date/Time
EDT
Temp
°C
App
Temp
°C
Dew
Point
Rel
Hum
%
Delta-T
°C
Wind Press
QNH
hPa
Press
MSL
hPa
Rain
since 9 am
mm
Dir
 
Spd
km/h
Gust
km/h
Spd
kts
Gust
kts
30/11:30pm 12.8 11.5 12.5 98 0.2 ENE 11 22 6 12 - - 0.0
30/11:00pm 13.0 10.6 12.8 99 0.1 E 17 28 9 15 - - 0.0
30/10:30pm 13.0 10.1 12.8 99 0.1 E 20 30 11 16 - - 0.0
30/10:00pm 13.0 10.2 12.7 98 0.2 E 19 26 10 14 - - 0.0
30/09:30pm 13.0 10.0 12.5 97 0.3 E 20 30 11 16 - - 0.0
30/09:00pm 13.1 10.4 12.8 98 0.2 E 19 26 10 14 - - 0.0
30/08:30pm 12.7 9.7 12.1 96 0.3 E 19 24 10 13 - - 0.0
30/08:00pm 13.1 10.6 12.3 95 0.5 E 17 22 9 12 - - 0.0
30/07:30pm 13.2 10.6 11.9 92 0.7 E 17 20 9 11 - - 0.0
30/07:00pm 13.6 10.9 11.7 88 1.1 E 17 24 9 13 - - 0.0
30/06:30pm 13.8 10.7 10.4 80 1.9 E 17 22 9 12 - - 0.0
30/06:00pm 14.3 11.8 10.9 80 1.9 E 15 20 8 11 - - 0.0
30/05:30pm 14.2 11.8 11.4 83 1.6 E 15 22 8 12 - - 0.0
30/05:00pm 15.5 13.5 12.6 83 1.7 E 15 26 8 14 - - 0.0
30/04:30pm 16.6 14.9 12.6 77 2.3 E 13 22 7 12 - - 0.0
30/04:00pm 17.1 15.9 9.5 61 4.2 E 6 15 3 8 - - 0.0
30/03:30pm 17.6 16.4 7.9 53 5.2 NNE 4 6 2 3 - - 0.0
30/03:00pm 18.8 18.1 8.5 51 5.6 NE 2 6 1 3 - - 0.0
30/02:30pm 17.7 16.0 7.4 51 5.5 N 6 7 3 4 - - 0.0
30/02:00pm 18.8 16.7 5.6 42 6.9 WNW 6 11 3 6 - - 0.0
30/01:30pm 20.3 17.5 5.1 37 7.9 NNW 9 26 5 14 - - 0.0
30/01:00pm 20.6 17.9 5.4 37 8.0 NW 9 20 5 11 - - 0.0
30/12:30pm 19.2 17.4 7.0 45 6.5 WNW 6 13 3 7 - - 0.0
30/12:00pm 19.6 16.7 6.4 42 7.0 NNW 11 19 6 10 - - 0.0
30/11:30am 18.7 16.7 6.9 46 6.3 NNE 7 15 4 8 - - 0.0
30/11:00am 17.8 14.9 6.7 48 5.9 N 11 24 6 13 - - 0.0
30/10:30am 16.4 15.2 9.6 64 3.8 NE 6 11 3 6 - - 0.0
30/10:00am 16.0 14.2 7.2 56 4.6 N 6 9 3 5 - - 0.0
30/09:30am 15.5 13.7 8.0 61 4.0 N 7 11 4 6 - - 0.0
30/09:00am 14.2 13.6 9.0 71 2.8 NE 2 6 1 3 - - 0.0
30/08:30am 13.4 12.4 7.2 66 3.2 NE 2 9 1 5 - - 0.0
30/08:00am 14.0 11.1 6.4 60 3.9 ENE 11 19 6 10 - - 0.0
30/07:30am 13.8 10.7 5.7 58 4.1 E 11 15 6 8 - - 0.0
30/07:00am 14.4 10.8 5.2 54 4.6 ESE 13 17 7 9 - - 0.0
30/06:30am 14.8 11.2 4.8 51 5.0 ESE 13 19 7 10 - - 0.0
30/06:00am 14.3 11.1 4.9 53 4.7 E 11 15 6 8 - - 0.0
30/05:30am 14.9 11.6 4.6 50 5.1 ESE 11 15 6 8 - - 0.0
30/05:00am 14.7 11.8 4.4 50 5.1 ESE 9 15 5 8 - - 0.0
30/04:30am 15.2 11.0 3.7 46 5.6 ESE 15 19 8 10 - - 0.0
30/04:00am 15.2 12.6 4.0 47 5.5 NW 7 19 4 10 - - 0.0
30/03:30am 14.8 13.1 7.4 61 3.9 NW 6 13 3 7 - - 0.0
30/03:00am 14.7 12.6 6.8 59 4.1 N 7 11 4 6 - - 0.0
30/02:30am 13.7 12.9 6.6 62 3.6 CALM 0 0 0 0 - - 0.0
30/02:00am 14.3 13.5 6.6 60 4.0 CALM 0 0 0 0 - - 0.0
30/01:30am 13.7 13.4 8.7 72 2.7 CALM 0 0 0 0 - - 0.0
30/01:00am 13.9 13.3 9.1 73 2.6 ESE 2 4 1 2 - - 0.0
30/12:30am 14.0 13.0 8.8 71 2.8 ESE 4 4 2 2 - - 0.0
30/12:00am 13.7 12.6 7.0 64 3.5 ESE 2 7 1 4 - - 0.0
 
Date/Time
EDT
Temp
°C
App
Temp
°C
Dew
Point
Rel
Hum
%
Delta-T
°C
Wind Press
QNH
hPa
Press
MSL
hPa
Rain
since 9 am
mm
Dir
 
Spd
km/h
Gust
km/h
Spd
kts
Gust
kts
29/11:30pm 14.4 13.9 7.9 65 3.4 CALM 0 2 0 1 - - 0.0
29/11:00pm 14.4 13.4 8.8 69 3.0 E 4 4 2 2 - - 0.0
29/10:30pm 14.3 13.1 6.4 59 4.0 S 2 7 1 4 - - 0.0
29/10:00pm 15.1 13.9 4.8 50 5.1 CALM 0 0 0 0 - - 0.0
29/09:30pm 14.4 13.2 4.4 51 4.9 CALM 0 2 0 1 - - 0.0
29/09:00pm 13.5 12.3 4.4 54 4.5 CALM 0 4 0 2 - - 0.0
29/08:30pm 14.7 13.3 3.5 47 5.4 CALM 0 0 0 0 - - 0.0
29/08:00pm 14.2 12.5 2.1 44 5.7 CALM 0 0 0 0 - - 0.0
29/07:30pm 15.1 13.6 3.0 44 5.8 CALM 0 0 0 0 - - 0.0
29/07:00pm 16.0 14.4 2.4 40 6.5 CALM 0 0 0 0 - - 0.0
29/06:30pm 18.4 16.3 1.4 32 8.1 W 2 4 1 2 - - 0.0
29/06:00pm 19.8 17.0 2.2 31 8.6 NW 6 9 3 5 - - 0.0
29/05:30pm 20.4 17.9 3.6 33 8.5 WNW 6 13 3 7 - - 0.0
29/05:00pm 21.7 19.4 4.7 33 8.8 WNW 6 13 3 7 - - 0.0
29/04:30pm 21.1 18.5 4.2 33 8.7 SW 7 13 4 7 - - 0.0
29/04:00pm 20.9 18.0 4.9 35 8.3 W 9 24 5 13 - - 0.0
29/03:30pm 20.7 18.2 4.7 35 8.3 N 7 20 4 11 - - 0.0
29/03:00pm 20.5 18.0 4.9 36 8.1 W 7 11 4 6 - - 0.0
29/02:30pm 20.3 18.4 4.8 36 8.0 NW 4 7 2 4 - - 0.0
29/02:00pm 20.1 16.9 5.0 37 7.8 NNW 11 20 6 11 - - 0.0
29/01:30pm 20.3 17.7 5.9 39 7.6 W 9 20 5 11 - - 0.0
29/01:00pm 19.2 17.0 6.3 43 6.8 NW 7 17 4 9 - - 0.0
29/12:30pm 18.7 16.9 7.2 47 6.2 NW 6 13 3 7 - - 0.0
29/12:00pm 18.7 16.8 7.5 48 6.0 W 7 11 4 6 - - 0.0
29/11:30am 17.1 15.1 8.5 57 4.7 NW 9 15 5 8 - - 0.0
29/11:00am 16.5 15.0 9.0 61 4.1 NW 7 15 4 8 - - 0.0
29/10:30am 15.7 14.9 9.6 67 3.4 NW 4 13 2 7 - - 0.0
29/10:00am 13.7 12.5 9.7 77 2.2 NNE 6 11 3 6 - - 0.0
29/09:30am 12.9 12.3 10.4 85 1.4 NE 4 9 2 5 - - 0.0
29/09:00am 12.3 11.5 10.9 91 0.8 ENE 6 9 3 5 - - 0.0
29/08:30am 11.5 11.1 11.2 98 0.2 ENE 4 9 2 5 - - 0.0
29/08:00am 10.2 8.2 10.1 99 0.1 E 11 15 6 8 - - 0.0
29/07:30am 9.9 7.8 9.8 99 0.1 E 11 13 6 7 - - 0.0
29/07:00am 9.7 7.6 9.6 99 0.1 E 11 15 6 8 - - 0.0
29/06:30am 9.8 6.5 9.7 99 0.1 E 17 22 9 12 - - 0.0
29/06:00am 9.9 6.7 9.8 99 0.1 E 17 20 9 11 - - 0.0
29/05:30am 10.0 6.8 9.9 99 0.1 E 17 20 9 11 - - 0.0
29/05:00am 10.0 7.2 9.9 99 0.1 E 15 20 8 11 - - 0.0
29/04:30am 9.9 7.0 9.8 99 0.1 E 15 20 8 11 - - 0.0
29/04:00am 9.9 7.0 9.8 99 0.1 E 15 20 8 11 - - 0.0
29/03:30am 9.9 7.0 9.8 99 0.1 E 15 20 8 11 - - 0.0
29/03:00am 9.9 7.0 9.8 99 0.1 E 15 19 8 10 - - 0.0
29/02:30am 10.0 7.1 9.7 98 0.2 E 15 19 8 10 - - 0.0
29/02:00am 10.1 7.2 9.8 98 0.2 E 15 20 8 11 - - 0.0
29/01:30am 9.9 7.4 9.6 98 0.2 E 13 20 7 11 - - 0.0
29/01:00am 10.0 7.1 9.7 98 0.2 E 15 19 8 10 - - 0.0
29/12:30am 10.0 7.1 9.7 98 0.2 E 15 20 8 11 - - 0.0
29/12:00am 10.1 7.3 10.0 99 0.1 E 15 19 8 10 - - 0.0
 
Date/Time
EDT
Temp
°C
App
Temp
°C
Dew
Point
Rel
Hum
%
Delta-T
°C
Wind Press
QNH
hPa
Press
MSL
hPa
Rain
since 9 am
mm
Dir
 
Spd
km/h
Gust
km/h
Spd
kts
Gust
kts
28/11:30pm 9.7 6.7 9.2 97 0.3 E 15 19 8 10 - - 0.0
28/11:00pm 9.6 6.0 8.5 93 0.6 E 17 19 9 10 - - 0.0
28/10:30pm 9.7 7.0 7.5 86 1.1 E 11 20 6 11 - - 0.0
28/10:00pm 10.7 8.1 7.9 83 1.4 E 11 15 6 8 - - 0.0
28/09:30pm 11.0 7.9 7.1 77 2.0 E 13 17 7 9 - - 0.0
28/09:00pm 11.6 7.9 6.1 69 2.8 E 15 22 8 12 - - 0.0
28/08:30pm 10.8 8.5 4.9 67 2.9 ENE 6 11 3 6 - - 0.0
28/08:00pm 12.4 9.3 5.6 63 3.4 E 11 17 6 9 - - 0.0
28/07:30pm 12.7 9.3 5.8 63 3.5 E 13 19 7 10 - - 0.0

Other Formats:

Comma delimited format used in spreadsheet applications
http://www.bom.gov.au/fwo/IDN60801/IDN60801.94754.axf

JavaScript Object Notation format (JSON) in row-major order
http://www.bom.gov.au/fwo/IDN60801/IDN60801.94754.json